Time;durP1;ratioP1;P1;durP2;ratioP2;P2;SDS_P1;SDS_P2;PMS_P1;PMS_P2;Temp;Humidity;BMP_temperature;BMP_pressure;BME280_temperature;BME280_humidity;BME280_pressure;Samples;Min_cycle;Max_cycle;Signal;HPM_P1;HPM_P2
2023/09/23 00:01:25;;;;;;;13.48;8.32;;;20.60;99.90;;;;;;5076052;28;20231;-69
2023/09/23 00:04:15;;;;;;;13.02;8.40;;;20.40;99.90;;;;;;5062545;28;20220;-70
2023/09/23 00:07:06;;;;;;;13.85;9.00;;;20.40;99.90;;;;;;5079700;28;20207;-70
2023/09/23 00:09:55;;;;;;;11.75;8.13;;;20.40;99.90;;;;;;5082326;27;20219;-70
2023/09/23 00:12:44;;;;;;;16.95;9.32;;;20.40;99.90;;;;;;5094698;27;20231;-72
2023/09/23 00:15:36;;;;;;;12.77;8.70;;;20.40;99.90;;;;;;5075271;28;20250;-71
2023/09/23 00:18:26;;;;;;;11.07;8.77;;;20.40;99.90;;;;;;5074581;28;20559;-69
2023/09/23 00:21:15;;;;;;;13.63;9.20;;;20.30;99.90;;;;;;5069759;28;20211;-68
2023/09/23 00:24:08;;;;;;;16.52;9.00;;;20.40;99.90;;;;;;5082468;28;20520;-68
2023/09/23 00:26:59;;;;;;;11.68;8.32;;;20.20;99.90;;;;;;5080342;27;20762;-70
2023/09/23 00:29:49;;;;;;;16.35;9.45;;;19.90;99.90;;;;;;5073410;28;20384;-69
2023/09/23 00:32:39;;;;;;;16.02;8.65;;;19.90;99.90;;;;;;5085830;28;20228;-68
2023/09/23 00:35:28;;;;;;;12.65;8.63;;;20.00;99.90;;;;;;5078134;28;20227;-70
2023/09/23 00:38:18;;;;;;;10.73;7.85;;;20.00;99.90;;;;;;5085624;28;20223;-69
2023/09/23 00:41:09;;;;;;;16.23;8.90;;;20.00;99.90;;;;;;5072085;28;20220;-68
2023/09/23 00:43:59;;;;;;;12.95;7.70;;;19.90;99.90;;;;;;5084733;28;20230;-69
2023/09/23 00:46:48;;;;;;;9.60;7.68;;;19.80;99.90;;;;;;5075197;28;20231;-69
2023/09/23 00:49:38;;;;;;;9.90;8.65;;;19.90;99.90;;;;;;5076849;28;20248;-69
2023/09/23 00:52:27;;;;;;;15.48;8.82;;;19.80;99.90;;;;;;5101089;27;20215;-69
2023/09/23 00:55:17;;;;;;;12.98;8.70;;;19.80;99.90;;;;;;5077038;28;20219;-69
2023/09/23 00:58:07;;;;;;;16.80;9.75;;;19.80;99.90;;;;;;5067096;28;20220;-68
2023/09/23 01:00:56;;;;;;;14.07;9.15;;;19.80;99.90;;;;;;5072556;28;20293;-68
2023/09/23 01:03:45;;;;;;;13.45;9.73;;;19.90;99.90;;;;;;5065138;28;20227;-69
2023/09/23 01:06:34;;;;;;;14.20;9.68;;;19.80;99.90;;;;;;5076271;28;20249;-68
2023/09/23 01:09:25;;;;;;;14.85;10.07;;;19.70;99.90;;;;;;5072978;28;20234;-71
2023/09/23 01:12:14;;;;;;;15.98;10.98;;;19.70;99.90;;;;;;5064215;28;20215;-70
2023/09/23 01:15:17;;;;;;;18.55;10.80;;;19.60;99.90;;;;;;5075498;28;20224;-68
2023/09/23 01:18:13;;;;;;;18.33;10.95;;;19.80;99.90;;;;;;5076349;27;20307;-69
2023/09/23 01:21:03;;;;;;;15.02;10.85;;;19.90;99.90;;;;;;5094966;27;20235;-67
2023/09/23 01:23:53;;;;;;;13.38;10.95;;;19.90;99.90;;;;;;5075847;28;20239;-69
2023/09/23 01:26:44;;;;;;;15.40;10.85;;;19.90;99.90;;;;;;5093383;28;20660;-70
2023/09/23 01:29:33;;;;;;;15.68;11.38;;;19.90;99.90;;;;;;5063309;28;20223;-71
2023/09/23 01:32:31;;;;;;;18.65;11.52;;;19.80;99.90;;;;;;5078171;28;20263;-69
2023/09/23 01:35:21;;;;;;;17.63;11.57;;;19.90;99.90;;;;;;5081907;28;20599;-70
2023/09/23 01:38:11;;;;;;;20.27;12.35;;;19.80;99.90;;;;;;5076278;28;20231;-69
2023/09/23 01:41:02;;;;;;;16.92;11.48;;;19.80;99.90;;;;;;5080197;28;20230;-69
2023/09/23 01:43:52;;;;;;;16.63;12.00;;;19.80;99.90;;;;;;5083089;28;20230;-68
2023/09/23 01:46:42;;;;;;;15.75;12.25;;;19.90;99.90;;;;;;5079610;28;20216;-68
2023/09/23 01:49:32;;;;;;;19.40;11.75;;;19.70;99.90;;;;;;5075747;28;20240;-69
2023/09/23 01:52:21;;;;;;;22.52;12.02;;;19.80;99.90;;;;;;5075840;28;20234;-69
2023/09/23 01:55:12;;;;;;;17.05;12.20;;;19.80;99.90;;;;;;5072046;28;20224;-69
2023/09/23 01:58:02;;;;;;;18.13;12.63;;;19.80;99.90;;;;;;5103646;27;20720;-68
2023/09/23 02:00:51;;;;;;;16.33;12.65;;;19.70;99.90;;;;;;5075643;28;20215;-68
2023/09/23 02:03:41;;;;;;;18.63;12.23;;;19.60;99.90;;;;;;5075454;28;20223;-69
2023/09/23 02:06:34;;;;;;;17.33;13.10;;;19.50;99.90;;;;;;5090615;28;20302;-69
2023/09/23 02:09:23;;;;;;;16.95;12.30;;;19.70;99.90;;;;;;5093683;27;20242;-70
2023/09/23 02:12:12;;;;;;;18.73;12.98;;;19.70;99.90;;;;;;5081855;28;20225;-68
2023/09/23 02:15:03;;;;;;;22.55;12.60;;;19.60;99.90;;;;;;5080785;28;20543;-70
2023/09/23 02:17:53;;;;;;;17.38;12.02;;;19.60;99.90;;;;;;5077513;28;20232;-71
2023/09/23 02:20:43;;;;;;;19.20;12.52;;;19.60;99.90;;;;;;5069604;28;20220;-70
2023/09/23 02:23:32;;;;;;;18.42;12.02;;;19.60;99.90;;;;;;5069574;28;20216;-71
2023/09/23 02:26:22;;;;;;;17.55;13.02;;;19.50;99.90;;;;;;5073975;28;20224;-69
2023/09/23 02:29:14;;;;;;;21.08;13.60;;;19.50;99.90;;;;;;5075460;28;20254;-70
2023/09/23 02:32:06;;;;;;;19.00;12.73;;;19.50;99.90;;;;;;5101002;27;20270;-69
2023/09/23 02:34:55;;;;;;;22.50;12.95;;;19.50;99.90;;;;;;5073587;28;20312;-69
2023/09/23 02:37:46;;;;;;;17.20;12.13;;;19.50;99.90;;;;;;5068346;28;20714;-71
2023/09/23 02:40:35;;;;;;;15.43;11.63;;;19.50;99.90;;;;;;5062713;28;20224;-69
2023/09/23 02:43:24;;;;;;;23.52;12.82;;;19.40;99.90;;;;;;5080161;28;20254;-69
2023/09/23 02:46:15;;;;;;;18.75;12.85;;;19.40;99.90;;;;;;5090511;27;20231;-69
2023/09/23 02:49:06;;;;;;;14.55;11.75;;;19.40;99.90;;;;;;5086309;27;20239;-69
2023/09/23 02:51:55;;;;;;;14.82;12.13;;;19.50;99.90;;;;;;5077785;28;20235;-71
2023/09/23 02:54:43;;;;;;;20.98;12.98;;;19.40;99.90;;;;;;5074760;28;20268;-69
2023/09/23 02:57:35;;;;;;;16.35;11.68;;;19.40;99.90;;;;;;5065256;28;20231;-70
2023/09/23 03:00:29;;;;;;;19.33;13.60;;;19.40;99.90;;;;;;5101711;27;20706;-69
2023/09/23 03:03:19;;;;;;;18.48;12.73;;;19.40;99.90;;;;;;5068654;28;20345;-69
2023/09/23 03:06:10;;;;;;;18.20;12.30;;;19.60;99.90;;;;;;5076857;27;20272;-70
2023/09/23 03:08:59;;;;;;;22.58;12.25;;;19.50;99.90;;;;;;5076649;27;20346;-68
2023/09/23 03:11:53;;;;;;;19.27;12.35;;;19.40;99.90;;;;;;5095985;27;20322;-70
2023/09/23 03:14:45;;;;;;;19.05;11.68;;;19.40;99.90;;;;;;5075317;28;20656;-69
2023/09/23 03:17:34;;;;;;;18.75;11.43;;;19.40;99.90;;;;;;5078072;27;20346;-70
2023/09/23 03:20:26;;;;;;;17.85;11.15;;;19.40;99.90;;;;;;5091757;27;20227;-70
2023/09/23 03:23:16;;;;;;;17.05;11.73;;;19.30;99.90;;;;;;5078338;28;20245;-69
2023/09/23 03:26:06;;;;;;;17.90;11.40;;;19.30;99.90;;;;;;5070531;27;21073;-69
2023/09/23 03:28:57;;;;;;;18.65;11.18;;;19.30;99.90;;;;;;5071329;28;20235;-69
2023/09/23 03:31:46;;;;;;;21.80;11.15;;;19.40;99.90;;;;;;5084789;27;20705;-68
2023/09/23 03:34:37;;;;;;;18.70;11.57;;;19.30;99.90;;;;;;5078609;28;20223;-70
2023/09/23 03:37:26;;;;;;;16.25;11.32;;;19.30;99.90;;;;;;5079593;28;20699;-68
2023/09/23 03:40:20;;;;;;;16.98;11.30;;;19.30;99.90;;;;;;5077734;28;20705;-68
2023/09/23 03:43:09;;;;;;;16.55;11.20;;;19.20;99.90;;;;;;5070868;27;20235;-69
2023/09/23 03:45:58;;;;;;;20.92;11.43;;;19.20;99.90;;;;;;5085167;28;20228;-69
2023/09/23 03:48:47;;;;;;;19.48;11.18;;;19.20;99.90;;;;;;5075110;28;20222;-68
2023/09/23 03:51:38;;;;;;;14.27;11.02;;;19.20;99.90;;;;;;5080068;28;20590;-69
2023/09/23 03:54:28;;;;;;;25.40;11.75;;;19.30;99.90;;;;;;5073619;28;20310;-69
2023/09/23 03:57:19;;;;;;;17.38;11.77;;;19.30;99.90;;;;;;5075297;28;20268;-69
2023/09/23 04:00:16;;;;;;;20.52;11.63;;;19.20;99.90;;;;;;5072417;28;20223;-71
2023/09/23 04:03:05;;;;;;;19.67;11.90;;;19.20;99.90;;;;;;5075592;28;20220;-69
2023/09/23 04:05:57;;;;;;;22.13;12.63;;;19.20;99.90;;;;;;5074842;28;20234;-69
2023/09/23 04:08:47;;;;;;;17.45;12.25;;;19.20;99.90;;;;;;5080475;28;20373;-70
2023/09/23 04:11:36;;;;;;;17.35;12.35;;;19.10;99.90;;;;;;5071308;28;20675;-69
2023/09/23 04:14:27;;;;;;;16.25;12.13;;;19.10;99.90;;;;;;5075593;28;20215;-70
2023/09/23 04:17:16;;;;;;;20.80;12.80;;;19.10;99.90;;;;;;5073797;28;20326;-69
2023/09/23 04:20:10;;;;;;;19.50;12.65;;;19.10;99.90;;;;;;5071908;28;20287;-69
2023/09/23 04:22:59;;;;;;;15.95;12.18;;;19.10;99.90;;;;;;5079623;27;20226;-70
2023/09/23 04:25:49;;;;;;;19.17;12.77;;;19.10;99.90;;;;;;5074001;28;20216;-69
2023/09/23 04:28:38;;;;;;;17.55;13.25;;;19.10;99.90;;;;;;5074602;28;20230;-69
2023/09/23 04:31:28;;;;;;;20.08;12.48;;;19.10;99.90;;;;;;5080056;28;20255;-68
2023/09/23 04:34:17;;;;;;;17.90;13.85;;;19.10;99.90;;;;;;5096122;27;20357;-69
2023/09/23 04:37:07;;;;;;;21.73;13.30;;;19.10;99.90;;;;;;5090741;28;20227;-69
2023/09/23 04:39:57;;;;;;;17.33;13.00;;;19.10;99.90;;;;;;5072950;28;20227;-70
2023/09/23 04:42:48;;;;;;;19.55;13.02;;;19.10;99.90;;;;;;5076649;28;20224;-71
2023/09/23 04:45:38;;;;;;;18.02;12.70;;;19.20;99.90;;;;;;5102960;27;20234;-70
2023/09/23 04:48:31;;;;;;;20.25;13.15;;;19.20;99.90;;;;;;5097055;27;20717;-70
2023/09/23 04:51:19;;;;;;;21.70;13.10;;;19.30;99.90;;;;;;5067347;28;20255;-69
2023/09/23 04:54:08;;;;;;;16.98;13.40;;;19.30;99.90;;;;;;5070606;28;20223;-71
2023/09/23 04:56:57;;;;;;;19.13;13.68;;;19.30;99.90;;;;;;5075893;28;20673;-68
2023/09/23 04:59:46;;;;;;;23.00;15.48;;;19.20;99.90;;;;;;5075654;28;20211;-69
2023/09/23 05:02:37;;;;;;;21.27;15.80;;;19.20;99.90;;;;;;5084134;27;20231;-70
2023/09/23 05:05:27;;;;;;;26.30;19.73;;;19.30;99.90;;;;;;5075065;28;20232;-69
2023/09/23 05:08:16;;;;;;;29.17;20.52;;;19.30;99.90;;;;;;5068583;28;20235;-68
2023/09/23 05:11:06;;;;;;;33.50;24.70;;;19.20;99.90;;;;;;5075407;28;20798;-69
2023/09/23 05:13:55;;;;;;;40.25;29.48;;;19.30;99.90;;;;;;5068033;28;20227;-69
2023/09/23 05:16:44;;;;;;;41.63;30.80;;;19.20;99.90;;;;;;5077670;28;20231;-70
2023/09/23 05:19:33;;;;;;;43.95;30.52;;;19.20;99.90;;;;;;5070448;28;20234;-69
2023/09/23 05:22:23;;;;;;;37.28;28.92;;;19.30;99.90;;;;;;5089468;28;20298;-71
2023/09/23 05:25:13;;;;;;;36.25;28.02;;;19.20;99.90;;;;;;5069489;28;20577;-70
2023/09/23 05:28:04;;;;;;;34.58;27.48;;;19.20;99.90;;;;;;5067162;28;20367;-69
2023/09/23 05:30:55;;;;;;;31.90;24.70;;;19.20;99.90;;;;;;5067398;28;20754;-69
2023/09/23 05:33:44;;;;;;;29.25;22.30;;;19.10;99.90;;;;;;5072676;28;20254;-68
2023/09/23 05:36:33;;;;;;;29.05;22.52;;;19.10;99.90;;;;;;5077916;27;20236;-71
2023/09/23 05:39:23;;;;;;;29.60;23.38;;;19.00;99.90;;;;;;5075175;28;20282;-68
2023/09/23 05:42:13;;;;;;;29.58;22.17;;;19.10;99.90;;;;;;5073386;28;20897;-69
2023/09/23 05:45:03;;;;;;;25.90;20.63;;;19.20;99.90;;;;;;5047184;28;20235;-69
2023/09/23 05:47:52;;;;;;;24.65;20.15;;;19.10;99.90;;;;;;5071731;28;20668;-70
2023/09/23 05:50:42;;;;;;;27.35;17.77;;;19.20;99.90;;;;;;5073850;28;20220;-71
2023/09/23 05:53:32;;;;;;;22.48;16.95;;;19.20;99.90;;;;;;5070483;28;20215;-69
2023/09/23 05:56:22;;;;;;;20.38;16.15;;;19.10;99.90;;;;;;5076529;28;20207;-69
2023/09/23 05:59:11;;;;;;;21.52;16.98;;;19.00;99.90;;;;;;5072181;28;20634;-70
2023/09/23 06:02:03;;;;;;;20.90;16.02;;;19.10;99.90;;;;;;5070349;28;20235;-68
2023/09/23 06:04:54;;;;;;;25.60;18.35;;;19.10;99.90;;;;;;5073139;28;20224;-69
2023/09/23 06:07:43;;;;;;;25.13;19.10;;;18.90;99.90;;;;;;5075389;28;20227;-71
2023/09/23 06:10:33;;;;;;;23.38;18.40;;;19.00;99.90;;;;;;5075375;28;20262;-68
2023/09/23 06:13:25;;;;;;;22.73;18.17;;;19.00;99.90;;;;;;5094440;27;20732;-69
2023/09/23 06:16:16;;;;;;;26.42;19.10;;;18.90;99.90;;;;;;5072684;28;20235;-68
2023/09/23 06:19:05;;;;;;;24.38;17.33;;;18.90;99.90;;;;;;5073738;28;20220;-68
2023/09/23 06:21:57;;;;;;;22.60;17.55;;;18.90;99.90;;;;;;5076476;28;20314;-67
2023/09/23 06:24:46;;;;;;;25.77;17.65;;;18.90;99.90;;;;;;5077369;28;20294;-67
2023/09/23 06:27:36;;;;;;;24.27;17.20;;;18.80;99.90;;;;;;5075046;28;20216;-69
2023/09/23 06:30:27;;;;;;;28.02;17.42;;;18.80;99.90;;;;;;5079725;27;20906;-67
2023/09/23 06:33:16;;;;;;;22.40;16.65;;;18.80;99.90;;;;;;5073022;27;20227;-69
2023/09/23 06:36:05;;;;;;;20.15;15.55;;;18.80;99.90;;;;;;5075377;28;20686;-68
2023/09/23 06:38:54;;;;;;;23.40;14.85;;;19.00;99.90;;;;;;5101843;27;20227;-68
2023/09/23 06:41:46;;;;;;;20.35;15.30;;;19.00;99.90;;;;;;5072075;28;20333;-71
2023/09/23 06:44:35;;;;;;;24.63;14.73;;;19.00;99.90;;;;;;5077451;28;20335;-70
2023/09/23 06:47:25;;;;;;;19.13;14.52;;;19.00;99.90;;;;;;5078042;28;20224;-68
2023/09/23 06:50:14;;;;;;;18.58;12.48;;;19.10;99.90;;;;;;5075614;28;20228;-70
2023/09/23 06:53:03;;;;;;;21.15;12.82;;;19.10;99.90;;;;;;5080847;27;20410;-70
2023/09/23 06:55:52;;;;;;;15.88;13.00;;;19.10;99.90;;;;;;5078373;28;20227;-69
2023/09/23 06:58:42;;;;;;;15.90;11.52;;;19.10;99.90;;;;;;5074242;28;20227;-70
2023/09/23 07:01:30;;;;;;;11.63;10.23;;;19.10;99.90;;;;;;5086328;28;20230;-69
2023/09/23 07:04:21;;;;;;;11.23;9.80;;;19.10;99.90;;;;;;5088119;27;20656;-69
2023/09/23 07:07:10;;;;;;;10.48;9.48;;;19.00;99.90;;;;;;5075285;28;20898;-70
2023/09/23 07:09:58;;;;;;;10.38;9.25;;;19.00;99.90;;;;;;5070849;28;20845;-70
2023/09/23 07:12:47;;;;;;;11.82;8.70;;;18.90;99.90;;;;;;5071708;28;20722;-69
2023/09/23 07:15:37;;;;;;;10.60;9.52;;;18.80;99.90;;;;;;5072428;28;20439;-69
2023/09/23 07:18:26;;;;;;;10.27;8.55;;;19.00;99.90;;;;;;5069505;28;20219;-71
2023/09/23 07:21:17;;;;;;;9.00;8.10;;;19.00;99.90;;;;;;5073282;28;20215;-72
2023/09/23 07:24:06;;;;;;;9.15;8.27;;;18.80;99.90;;;;;;5067092;28;20220;-71
2023/09/23 07:27:00;;;;;;;9.35;8.25;;;19.00;99.90;;;;;;5085841;27;20661;-71
2023/09/23 07:29:49;;;;;;;8.57;7.40;;;19.00;99.90;;;;;;5070829;28;20224;-71
2023/09/23 07:32:38;;;;;;;9.10;7.30;;;18.90;99.90;;;;;;5099661;27;20240;-71
2023/09/23 07:35:31;;;;;;;8.32;6.88;;;19.00;99.90;;;;;;5073815;28;20235;-76
2023/09/23 07:38:21;;;;;;;7.03;6.35;;;19.00;99.90;;;;;;5094923;27;20234;-73
2023/09/23 07:41:11;;;;;;;6.63;5.97;;;19.10;99.90;;;;;;5064215;28;20699;-73
2023/09/23 07:44:00;;;;;;;6.32;5.72;;;19.10;99.90;;;;;;5064028;28;20215;-72
2023/09/23 07:46:49;;;;;;;5.38;4.90;;;19.10;99.90;;;;;;5066783;27;20216;-74
2023/09/23 07:49:38;;;;;;;4.40;4.00;;;19.10;99.90;;;;;;5069880;28;20632;-74
2023/09/23 07:52:27;;;;;;;7.38;3.65;;;19.10;99.90;;;;;;5098561;27;20213;-72
2023/09/23 07:55:17;;;;;;;4.93;4.00;;;19.20;99.90;;;;;;5069287;28;20227;-73
2023/09/23 07:58:07;;;;;;;6.18;3.00;;;19.20;99.90;;;;;;5073724;28;20224;-72
2023/09/23 08:00:55;;;;;;;4.47;2.72;;;19.40;99.90;;;;;;5075861;28;20295;-74
2023/09/23 08:03:44;;;;;;;3.45;2.90;;;19.40;99.90;;;;;;5075364;28;20222;-73
2023/09/23 08:06:34;;;;;;;3.25;2.92;;;19.50;99.90;;;;;;5081298;28;20226;-74
2023/09/23 08:09:25;;;;;;;3.67;2.85;;;19.70;99.90;;;;;;5082935;28;20224;-72
2023/09/23 08:12:15;;;;;;;3.53;2.72;;;19.60;99.90;;;;;;5077182;28;20564;-72
2023/09/23 08:15:05;;;;;;;3.30;2.80;;;19.60;99.90;;;;;;5081033;28;20308;-73
2023/09/23 08:17:54;;;;;;;4.05;2.83;;;19.50;99.90;;;;;;5067456;28;20247;-73
2023/09/23 08:20:43;;;;;;;4.15;3.10;;;19.50;99.90;;;;;;5077217;28;20220;-73
2023/09/23 08:23:32;;;;;;;3.60;3.30;;;19.50;99.90;;;;;;5072454;28;20242;-72
2023/09/23 08:26:21;;;;;;;5.80;3.42;;;19.50;99.90;;;;;;5073020;28;20219;-75
2023/09/23 08:29:12;;;;;;;4.88;3.70;;;19.30;99.90;;;;;;5099440;27;20243;-72
2023/09/23 08:32:01;;;;;;;4.75;3.47;;;19.30;99.90;;;;;;5075132;28;20229;-72
2023/09/23 08:34:50;;;;;;;4.53;3.70;;;19.40;99.90;;;;;;5073963;28;20242;-73
2023/09/23 08:37:39;;;;;;;5.78;3.63;;;19.50;99.90;;;;;;5067060;28;20305;-73
2023/09/23 08:40:36;;;;;;;4.95;3.20;;;19.50;99.90;;;;;;5076364;28;20243;-73
2023/09/23 08:43:36;;;;;;;3.25;2.95;;;19.70;99.90;;;;;;5090775;28;20247;-73
2023/09/23 08:46:27;;;;;;;4.65;4.18;;;19.70;99.90;;;;;;5081983;28;20859;-74
2023/09/23 08:49:18;;;;;;;4.22;3.25;;;19.60;99.90;;;;;;5071632;28;20284;-74
2023/09/23 08:52:09;;;;;;;4.15;3.50;;;19.60;99.90;;;;;;5084825;28;20231;-73
2023/09/23 08:54:57;;;;;;;5.18;3.10;;;19.60;99.90;;;;;;5076726;28;20220;-73
2023/09/23 08:57:47;;;;;;;3.78;2.72;;;19.50;99.90;;;;;;5075255;28;20224;-73
2023/09/23 09:00:36;;;;;;;3.53;3.10;;;19.40;99.90;;;;;;5078687;28;20232;-72
2023/09/23 09:03:28;;;;;;;3.10;2.90;;;19.40;99.90;;;;;;5071940;28;20239;-72
2023/09/23 09:06:17;;;;;;;3.33;2.97;;;19.50;99.90;;;;;;5092358;28;20219;-74
2023/09/23 09:09:07;;;;;;;3.17;2.92;;;19.80;99.90;;;;;;5074492;28;20228;-72
2023/09/23 09:11:58;;;;;;;4.53;3.78;;;19.90;99.90;;;;;;5076224;28;20634;-73
2023/09/23 09:14:51;;;;;;;4.45;3.40;;;20.00;99.90;;;;;;5075721;28;20338;-75
2023/09/23 09:17:45;;;;;;;3.58;3.28;;;19.90;99.90;;;;;;5068310;28;20313;-73
2023/09/23 09:20:37;;;;;;;3.47;3.10;;;20.00;99.90;;;;;;5080145;28;20215;-75
2023/09/23 09:23:29;;;;;;;3.78;2.97;;;19.90;99.90;;;;;;5082256;28;20224;-73
2023/09/23 09:26:18;;;;;;;3.28;2.80;;;20.00;99.90;;;;;;5076784;28;20709;-72
2023/09/23 09:29:08;;;;;;;3.42;3.10;;;20.00;99.90;;;;;;5076215;28;20254;-74
2023/09/23 09:32:01;;;;;;;3.65;3.00;;;19.90;99.90;;;;;;5076727;27;20306;-72
2023/09/23 09:34:51;;;;;;;3.55;3.25;;;19.80;99.90;;;;;;5074801;28;20851;-74
2023/09/23 09:37:44;;;;;;;4.88;3.47;;;19.80;99.90;;;;;;5055484;28;20227;-72
2023/09/23 09:40:33;;;;;;;5.30;3.30;;;19.70;99.90;;;;;;5034924;28;20228;-74
2023/09/23 09:43:23;;;;;;;6.07;3.25;;;19.70;99.90;;;;;;5051836;28;20215;-73
2023/09/23 09:46:14;;;;;;;4.38;2.67;;;19.80;99.90;;;;;;5052611;28;20225;-73
2023/09/23 09:49:04;;;;;;;3.28;2.47;;;19.80;99.90;;;;;;5053618;28;20327;-74
2023/09/23 09:51:53;;;;;;;2.92;2.35;;;19.90;99.90;;;;;;5056021;28;20227;-74
2023/09/23 09:54:44;;;;;;;2.30;2.10;;;19.90;99.90;;;;;;5042096;28;20386;-74
2023/09/23 09:57:33;;;;;;;2.20;2.00;;;19.90;99.90;;;;;;5059093;28;20707;-75
2023/09/23 10:00:27;;;;;;;2.03;1.92;;;19.90;99.90;;;;;;5035329;28;20236;-71
2023/09/23 10:03:16;;;;;;;1.90;1.80;;;19.90;99.90;;;;;;5047050;28;20896;-74
2023/09/23 10:06:08;;;;;;;1.95;1.77;;;19.80;99.90;;;;;;5063485;28;20216;-74
2023/09/23 10:08:58;;;;;;;2.20;2.00;;;19.90;99.90;;;;;;5060998;28;20223;-73
2023/09/23 10:11:55;;;;;;;3.15;2.58;;;19.90;99.90;;;;;;5037488;28;20267;-72
2023/09/23 10:14:53;;;;;;;2.80;2.60;;;19.90;99.90;;;;;;5044350;28;21717;-74
2023/09/23 10:17:43;;;;;;;3.42;3.00;;;19.80;99.90;;;;;;5062884;28;20216;-73
2023/09/23 10:20:35;;;;;;;4.15;3.47;;;19.70;99.90;;;;;;5043990;28;20273;-73
2023/09/23 10:23:24;;;;;;;5.72;3.47;;;19.70;99.90;;;;;;5058287;28;20213;-74
2023/09/23 10:26:14;;;;;;;3.83;3.50;;;19.70;99.90;;;;;;5057754;28;20213;-73
2023/09/23 10:29:07;;;;;;;4.22;3.83;;;19.70;99.90;;;;;;5052575;28;20235;-74
2023/09/23 10:31:56;;;;;;;6.13;4.35;;;19.60;99.90;;;;;;5044360;28;20236;-73
2023/09/23 10:34:48;;;;;;;5.72;4.53;;;19.50;99.90;;;;;;5054976;28;20300;-74
2023/09/23 10:37:39;;;;;;;5.25;4.63;;;19.50;99.90;;;;;;5044444;28;20232;-74
2023/09/23 10:40:27;;;;;;;5.00;4.50;;;19.50;99.90;;;;;;5048306;28;20223;-73
2023/09/23 10:43:16;;;;;;;5.72;4.72;;;19.50;99.90;;;;;;5041991;28;20301;-73
2023/09/23 10:46:07;;;;;;;4.90;4.40;;;19.60;99.90;;;;;;5056521;28;20220;-73
2023/09/23 10:48:56;;;;;;;5.10;4.70;;;19.60;99.90;;;;;;5039373;28;20393;-74
2023/09/23 10:51:45;;;;;;;5.35;4.85;;;19.70;99.90;;;;;;5044029;28;20279;-73
2023/09/23 10:54:34;;;;;;;5.63;5.18;;;19.80;99.90;;;;;;5049115;28;20686;-74
2023/09/23 10:57:24;;;;;;;5.82;5.03;;;19.90;99.90;;;;;;5037372;28;20307;-72
2023/09/23 11:00:20;;;;;;;6.30;5.18;;;20.00;99.90;;;;;;5058203;28;20224;-73
2023/09/23 11:03:12;;;;;;;5.80;5.30;;;20.00;99.90;;;;;;5047159;28;20791;-74
2023/09/23 11:06:02;;;;;;;5.50;5.10;;;20.10;99.90;;;;;;5036541;28;20224;-73
2023/09/23 11:08:52;;;;;;;5.75;5.25;;;20.00;99.90;;;;;;5038826;28;20224;-73
2023/09/23 11:11:43;;;;;;;5.40;4.75;;;20.00;99.90;;;;;;5051897;28;20228;-70
2023/09/23 11:14:32;;;;;;;4.93;4.45;;;20.00;99.90;;;;;;5059170;28;20781;-71
2023/09/23 11:17:25;;;;;;;5.00;4.50;;;19.90;99.90;;;;;;5058739;28;20679;-70
2023/09/23 11:20:16;;;;;;;5.65;4.70;;;19.90;99.90;;;;;;5041278;28;20281;-70
2023/09/23 11:23:06;;;;;;;5.05;4.55;;;19.80;99.90;;;;;;5052206;28;20224;-71
2023/09/23 11:25:56;;;;;;;4.50;4.10;;;19.90;99.90;;;;;;5062481;28;20756;-70
2023/09/23 11:28:44;;;;;;;6.30;4.72;;;19.80;99.90;;;;;;5030121;28;20216;-68
2023/09/23 11:31:34;;;;;;;4.30;3.90;;;19.90;99.90;;;;;;5025496;28;21078;-70
2023/09/23 11:34:27;;;;;;;6.35;4.22;;;19.90;99.90;;;;;;5042230;28;20755;-72
2023/09/23 11:37:20;;;;;;;4.88;4.47;;;19.90;99.90;;;;;;5056524;28;21366;-72
2023/09/23 11:40:12;;;;;;;4.55;4.15;;;19.80;99.90;;;;;;5039961;28;20244;-74
2023/09/23 11:43:00;;;;;;;4.47;4.07;;;19.70;99.90;;;;;;5038397;28;20208;-73
2023/09/23 11:45:49;;;;;;;4.72;4.32;;;19.70;99.90;;;;;;5060155;28;20366;-73
2023/09/23 11:48:38;;;;;;;4.50;4.10;;;19.50;99.90;;;;;;5035453;28;20224;-74
2023/09/23 11:51:27;;;;;;;4.32;4.03;;;19.40;99.90;;;;;;5038905;28;20255;-74
2023/09/23 11:54:17;;;;;;;4.75;4.30;;;19.30;99.90;;;;;;5054436;28;20223;-73
2023/09/23 11:57:08;;;;;;;4.85;4.38;;;19.30;99.90;;;;;;5048601;28;20244;-74
2023/09/23 11:59:57;;;;;;;4.93;4.53;;;19.40;99.90;;;;;;5041493;28;20702;-72
2023/09/23 12:02:47;;;;;;;4.75;4.32;;;19.40;99.90;;;;;;5038190;28;20216;-72
2023/09/23 12:05:37;;;;;;;6.15;4.47;;;19.50;99.90;;;;;;5043616;28;20221;-74
2023/09/23 12:08:25;;;;;;;5.18;4.78;;;19.60;99.90;;;;;;5057557;28;20216;-73
2023/09/23 12:11:17;;;;;;;4.82;4.05;;;19.70;99.90;;;;;;5050124;28;20335;-73
2023/09/23 12:14:06;;;;;;;5.70;5.10;;;19.50;99.90;;;;;;5052505;28;20699;-72
2023/09/23 12:16:54;;;;;;;5.53;5.03;;;19.50;99.90;;;;;;5045756;28;20926;-71
2023/09/23 12:19:44;;;;;;;5.90;5.00;;;19.50;99.90;;;;;;5045542;28;20224;-71
2023/09/23 12:22:33;;;;;;;5.55;5.05;;;19.50;99.90;;;;;;5035898;28;20227;-74
2023/09/23 12:25:22;;;;;;;5.78;5.28;;;19.70;99.90;;;;;;5057079;28;20223;-72
2023/09/23 12:28:12;;;;;;;6.15;5.53;;;19.70;99.90;;;;;;5044803;28;20812;-72
2023/09/23 12:31:01;;;;;;;5.40;4.90;;;19.70;99.90;;;;;;5053518;28;20881;-74
2023/09/23 12:33:50;;;;;;;5.70;5.20;;;19.60;99.90;;;;;;5054836;28;20235;-72
2023/09/23 12:36:40;;;;;;;6.68;5.85;;;19.70;99.90;;;;;;5067637;28;20231;-73
2023/09/23 12:39:32;;;;;;;5.80;5.20;;;19.70;99.90;;;;;;5067765;28;20226;-73
2023/09/23 12:42:21;;;;;;;5.85;5.25;;;19.70;99.90;;;;;;5080286;28;20391;-73
2023/09/23 12:45:13;;;;;;;6.68;5.97;;;19.60;99.90;;;;;;5077575;28;20242;-72
2023/09/23 12:48:02;;;;;;;6.40;5.90;;;19.50;99.90;;;;;;5088325;28;20234;-73
2023/09/23 12:50:51;;;;;;;6.25;5.43;;;19.40;99.90;;;;;;5077702;28;20223;-71
2023/09/23 12:53:40;;;;;;;4.95;4.55;;;19.40;99.90;;;;;;5076896;28;20333;-74
2023/09/23 12:56:30;;;;;;;5.90;5.20;;;19.40;99.90;;;;;;5068916;28;20366;-73
2023/09/23 12:59:20;;;;;;;5.85;5.10;;;19.30;99.90;;;;;;5064496;28;20227;-73
2023/09/23 13:02:11;;;;;;;5.63;5.07;;;19.40;99.90;;;;;;5077682;28;20219;-72
2023/09/23 13:05:00;;;;;;;6.40;4.82;;;19.30;99.90;;;;;;5055896;28;20289;-73
2023/09/23 13:07:49;;;;;;;5.95;5.45;;;19.30;99.90;;;;;;5073704;28;20238;-73
2023/09/23 13:10:39;;;;;;;5.95;5.25;;;19.30;99.90;;;;;;5074441;28;20272;-73
2023/09/23 13:13:28;;;;;;;6.03;5.53;;;19.20;99.90;;;;;;5079447;28;20703;-73
2023/09/23 13:16:17;;;;;;;6.85;5.70;;;19.20;99.90;;;;;;5070858;28;20273;-73
2023/09/23 13:19:08;;;;;;;6.70;6.07;;;19.10;99.90;;;;;;5071896;28;25311;-73
2023/09/23 13:21:57;;;;;;;6.03;5.43;;;19.10;99.90;;;;;;5075546;28;20467;-73
2023/09/23 13:24:46;;;;;;;5.55;5.05;;;19.10;99.90;;;;;;5070140;28;20300;-74
2023/09/23 13:27:35;;;;;;;5.07;4.20;;;19.10;99.90;;;;;;5086012;28;20253;-74
2023/09/23 13:30:25;;;;;;;5.45;4.50;;;19.00;99.90;;;;;;5072612;28;20224;-74
2023/09/23 13:33:14;;;;;;;4.80;4.20;;;18.90;99.90;;;;;;5061647;28;20574;-73
2023/09/23 13:36:05;;;;;;;5.20;4.63;;;19.00;99.90;;;;;;5073350;28;20371;-73
2023/09/23 13:38:54;;;;;;;5.10;4.63;;;19.00;99.90;;;;;;5063713;28;20232;-73
2023/09/23 13:41:47;;;;;;;5.70;5.20;;;19.10;99.90;;;;;;5068702;28;20258;-72
2023/09/23 13:44:36;;;;;;;6.78;5.40;;;19.20;99.90;;;;;;5058523;28;20227;-73
2023/09/23 13:47:25;;;;;;;5.47;4.80;;;19.20;99.90;;;;;;5077337;28;20212;-71
2023/09/23 13:50:15;;;;;;;5.80;5.13;;;19.20;99.90;;;;;;5066993;28;20230;-72
2023/09/23 13:53:05;;;;;;;7.25;4.60;;;19.20;99.90;;;;;;5099653;27;20259;-72
2023/09/23 13:55:55;;;;;;;7.25;4.95;;;19.20;99.90;;;;;;5072298;28;20647;-73
2023/09/23 13:58:43;;;;;;;7.82;4.60;;;19.20;99.90;;;;;;5073675;28;20216;-73
2023/09/23 14:01:33;;;;;;;5.30;4.70;;;19.20;99.90;;;;;;5077057;28;20227;-73
2023/09/23 14:04:22;;;;;;;6.13;4.70;;;19.10;99.90;;;;;;5073711;28;20606;-73
2023/09/23 14:07:11;;;;;;;5.68;4.55;;;19.10;99.90;;;;;;5070760;28;20694;-73
2023/09/23 14:10:07;;;;;;;5.60;4.72;;;19.00;99.90;;;;;;5072303;28;20231;-72
2023/09/23 14:13:09;;;;;;;5.97;4.35;;;19.00;99.90;;;;;;5072869;28;20220;-72
2023/09/23 14:15:59;;;;;;;5.40;4.53;;;18.90;99.90;;;;;;5068641;28;20464;-72
2023/09/23 14:18:49;;;;;;;6.22;4.30;;;18.90;99.90;;;;;;5071801;28;20296;-73
2023/09/23 14:21:38;;;;;;;5.93;4.72;;;19.00;99.90;;;;;;5072992;28;20741;-74
2023/09/23 14:24:28;;;;;;;5.50;4.10;;;19.10;99.90;;;;;;5070705;28;20229;-73
2023/09/23 14:27:19;;;;;;;4.80;4.30;;;19.00;99.90;;;;;;5074112;28;20765;-72
2023/09/23 14:30:10;;;;;;;5.15;4.05;;;19.00;99.90;;;;;;5089055;28;20227;-74
2023/09/23 14:32:59;;;;;;;5.70;4.30;;;18.90;99.90;;;;;;5072484;28;20634;-74
2023/09/23 14:35:49;;;;;;;5.32;4.82;;;18.90;99.90;;;;;;5067486;28;20235;-73